sensor_id;sensor_type;location;lat;lon;timestamp;pressure;altitude;pressure_sealevel;temperature;humidity
12879;BME280;20617;49.476;10.986;2022-09-12T00:00:25;98471.53;;;15.46;100.00
12879;BME280;20617;49.476;10.986;2022-09-12T00:02:35;98471.47;;;15.48;100.00
12879;BME280;20617;49.476;10.986;2022-09-12T00:04:40;98473.97;;;15.49;100.00
12879;BME280;20617;49.476;10.986;2022-09-12T00:06:45;98466.22;;;15.48;100.00
12879;BME280;20617;49.476;10.986;2022-09-12T00:08:52;98476.59;;;15.49;100.00
12879;BME280;20617;49.476;10.986;2022-09-12T00:11:03;98467.97;;;15.47;100.00
12879;BME280;20617;49.476;10.986;2022-09-12T00:13:09;98468.06;;;15.46;100.00
12879;BME280;20617;49.476;10.986;2022-09-12T00:15:14;98460.00;;;15.49;100.00
12879;BME280;20617;49.476;10.986;2022-09-12T00:17:19;98465.16;;;15.50;100.00
12879;BME280;20617;49.476;10.986;2022-09-12T00:19:29;98468.72;;;15.49;100.00
12879;BME280;20617;49.476;10.986;2022-09-12T00:21:36;98470.69;;;15.46;100.00
12879;BME280;20617;49.476;10.986;2022-09-12T00:23:41;98464.97;;;15.39;100.00
12879;BME280;20617;49.476;10.986;2022-09-12T00:25:47;98465.81;;;15.39;100.00
12879;BME280;20617;49.476;10.986;2022-09-12T00:27:51;98464.03;;;15.40;100.00
12879;BME280;20617;49.476;10.986;2022-09-12T00:29:56;98467.66;;;15.37;100.00
12879;BME280;20617;49.476;10.986;2022-09-12T00:32:01;98463.63;;;15.32;100.00
12879;BME280;20617;49.476;10.986;2022-09-12T00:34:06;98460.22;;;15.30;100.00
12879;BME280;20617;49.476;10.986;2022-09-12T00:36:15;98464.56;;;15.31;100.00
12879;BME280;20617;49.476;10.986;2022-09-12T00:38:20;98462.00;;;15.29;100.00
12879;BME280;20617;49.476;10.986;2022-09-12T00:40:25;98461.28;;;15.27;100.00
12879;BME280;20617;49.476;10.986;2022-09-12T00:42:30;98462.13;;;15.28;100.00
12879;BME280;20617;49.476;10.986;2022-09-12T00:44:48;98456.88;;;15.28;100.00
12879;BME280;20617;49.476;10.986;2022-09-12T00:46:56;98457.06;;;15.25;100.00
12879;BME280;20617;49.476;10.986;2022-09-12T00:49:04;98456.34;;;15.21;100.00
12879;BME280;20617;49.476;10.986;2022-09-12T00:51:14;98455.69;;;15.17;100.00
12879;BME280;20617;49.476;10.986;2022-09-12T00:53:20;98454.97;;;15.15;100.00
12879;BME280;20617;49.476;10.986;2022-09-12T00:55:27;98455.03;;;15.14;100.00
12879;BME280;20617;49.476;10.986;2022-09-12T00:57:36;98444.63;;;15.12;100.00
12879;BME280;20617;49.476;10.986;2022-09-12T00:59:47;98438.53;;;15.12;100.00
12879;BME280;20617;49.476;10.986;2022-09-12T01:01:53;98434.41;;;15.08;100.00
12879;BME280;20617;49.476;10.986;2022-09-12T01:04:00;98441.34;;;15.09;100.00
12879;BME280;20617;49.476;10.986;2022-09-12T01:06:07;98439.84;;;15.05;100.00
12879;BME280;20617;49.476;10.986;2022-09-12T01:08:19;98436.72;;;14.98;100.00
12879;BME280;20617;49.476;10.986;2022-09-12T01:10:24;98439.84;;;14.89;100.00
12879;BME280;20617;49.476;10.986;2022-09-12T01:12:28;98441.16;;;14.82;100.00
12879;BME280;20617;49.476;10.986;2022-09-12T01:14:35;98444.72;;;14.81;100.00
12879;BME280;20617;49.476;10.986;2022-09-12T01:16:41;98438.44;;;14.83;100.00
12879;BME280;20617;49.476;10.986;2022-09-12T01:18:57;98437.34;;;14.87;100.00
12879;BME280;20617;49.476;10.986;2022-09-12T01:21:14;98433.69;;;14.90;100.00
12879;BME280;20617;49.476;10.986;2022-09-12T01:24:09;98430.13;;;14.91;100.00
12879;BME280;20617;49.476;10.986;2022-09-12T01:29:24;98427.03;;;14.84;100.00
12879;BME280;20617;49.476;10.986;2022-09-12T01:31:41;98425.25;;;14.85;100.00
12879;BME280;20617;49.476;10.986;2022-09-12T01:33:57;98409.78;;;14.80;100.00
12879;BME280;20617;49.476;10.986;2022-09-12T01:38:43;98422.66;;;14.69;100.00
12879;BME280;20617;49.476;10.986;2022-09-12T01:40:57;98422.66;;;14.69;100.00
12879;BME280;20617;49.476;10.986;2022-09-12T01:43:07;98424.25;;;14.71;100.00
12879;BME280;20617;49.476;10.986;2022-09-12T01:45:20;98419.34;;;14.65;100.00
12879;BME280;20617;49.476;10.986;2022-09-12T01:47:38;98412.59;;;14.61;100.00
12879;BME280;20617;49.476;10.986;2022-09-12T01:49:47;98412.94;;;14.55;100.00
12879;BME280;20617;49.476;10.986;2022-09-12T01:52:00;98412.00;;;14.56;100.00
12879;BME280;20617;49.476;10.986;2022-09-12T01:54:09;98406.59;;;14.59;100.00
12879;BME280;20617;49.476;10.986;2022-09-12T01:56:19;98403.63;;;14.65;100.00
12879;BME280;20617;49.476;10.986;2022-09-12T01:58:29;98413.69;;;14.57;100.00
12879;BME280;20617;49.476;10.986;2022-09-12T02:00:43;98415.00;;;14.48;100.00
12879;BME280;20617;49.476;10.986;2022-09-12T02:02:56;98405.41;;;14.49;100.00
12879;BME280;20617;49.476;10.986;2022-09-12T02:05:07;98403.47;;;14.53;100.00
12879;BME280;20617;49.476;10.986;2022-09-12T02:07:17;98407.06;;;14.50;100.00
12879;BME280;20617;49.476;10.986;2022-09-12T02:09:26;98410.97;;;14.43;100.00
12879;BME280;20617;49.476;10.986;2022-09-12T02:11:36;98408.44;;;14.41;100.00
12879;BME280;20617;49.476;10.986;2022-09-12T02:13:46;98405.75;;;14.43;100.00
12879;BME280;20617;49.476;10.986;2022-09-12T02:15:57;98405.56;;;14.46;100.00
12879;BME280;20617;49.476;10.986;2022-09-12T02:18:11;98402.84;;;14.47;100.00
12879;BME280;20617;49.476;10.986;2022-09-12T02:20:20;98409.09;;;14.45;100.00
12879;BME280;20617;49.476;10.986;2022-09-12T02:22:49;98398.13;;;14.38;100.00
12879;BME280;20617;49.476;10.986;2022-09-12T02:24:58;98402.75;;;14.33;100.00
12879;BME280;20617;49.476;10.986;2022-09-12T02:27:06;98399.47;;;14.30;100.00
12879;BME280;20617;49.476;10.986;2022-09-12T02:29:13;98401.25;;;14.29;100.00
12879;BME280;20617;49.476;10.986;2022-09-12T02:31:19;98391.97;;;14.23;100.00
12879;BME280;20617;49.476;10.986;2022-09-12T02:33:32;98395.59;;;14.21;100.00
12879;BME280;20617;49.476;10.986;2022-09-12T02:35:43;98391.63;;;14.14;100.00
12879;BME280;20617;49.476;10.986;2022-09-12T02:37:55;98394.25;;;14.14;100.00
12879;BME280;20617;49.476;10.986;2022-09-12T02:40:01;98384.63;;;14.14;100.00
12879;BME280;20617;49.476;10.986;2022-09-12T02:42:07;98386.97;;;14.19;100.00
12879;BME280;20617;49.476;10.986;2022-09-12T02:44:12;98385.34;;;14.16;100.00
12879;BME280;20617;49.476;10.986;2022-09-12T02:46:21;98389.69;;;14.17;100.00
12879;BME280;20617;49.476;10.986;2022-09-12T02:48:33;98388.06;;;14.15;100.00
12879;BME280;20617;49.476;10.986;2022-09-12T02:50:42;98389.00;;;14.14;100.00
12879;BME280;20617;49.476;10.986;2022-09-12T02:52:47;98387.06;;;14.17;100.00
12879;BME280;20617;49.476;10.986;2022-09-12T02:54:54;98390.53;;;14.18;100.00
12879;BME280;20617;49.476;10.986;2022-09-12T02:57:01;98391.53;;;14.15;100.00
12879;BME280;20617;49.476;10.986;2022-09-12T02:59:07;98391.53;;;14.15;100.00
12879;BME280;20617;49.476;10.986;2022-09-12T03:01:25;98394.91;;;14.17;100.00
12879;BME280;20617;49.476;10.986;2022-09-12T03:03:52;98387.97;;;14.16;100.00
12879;BME280;20617;49.476;10.986;2022-09-12T03:06:02;98397.88;;;14.11;100.00
12879;BME280;20617;49.476;10.986;2022-09-12T03:08:27;98383.00;;;14.12;100.00
12879;BME280;20617;49.476;10.986;2022-09-12T03:10:41;98383.91;;;14.11;100.00
12879;BME280;20617;49.476;10.986;2022-09-12T03:12:54;98381.47;;;14.08;100.00
12879;BME280;20617;49.476;10.986;2022-09-12T03:15:14;98382.50;;;14.05;100.00
12879;BME280;20617;49.476;10.986;2022-09-12T03:17:28;98379.28;;;14.00;100.00
12879;BME280;20617;49.476;10.986;2022-09-12T03:19:51;98382.91;;;13.97;100.00
12879;BME280;20617;49.476;10.986;2022-09-12T03:22:03;98388.31;;;13.94;100.00
12879;BME280;20617;49.476;10.986;2022-09-12T03:24:16;98378.78;;;13.93;100.00
12879;BME280;20617;49.476;10.986;2022-09-12T03:26:25;98378.69;;;13.95;100.00
12879;BME280;20617;49.476;10.986;2022-09-12T03:28:35;98385.00;;;13.91;100.00
12879;BME280;20617;49.476;10.986;2022-09-12T03:30:42;98378.91;;;13.90;100.00
12879;BME280;20617;49.476;10.986;2022-09-12T03:32:50;98381.69;;;13.87;100.00
12879;BME280;20617;49.476;10.986;2022-09-12T03:34:57;98385.34;;;13.85;100.00
12879;BME280;20617;49.476;10.986;2022-09-12T03:37:02;98385.41;;;13.83;100.00
12879;BME280;20617;49.476;10.986;2022-09-12T03:39:07;98385.41;;;13.83;100.00
12879;BME280;20617;49.476;10.986;2022-09-12T03:41:12;98382.88;;;13.81;100.00
12879;BME280;20617;49.476;10.986;2022-09-12T03:43:17;98384.81;;;13.78;100.00
12879;BME280;20617;49.476;10.986;2022-09-12T03:45:22;98388.53;;;13.74;100.00
12879;BME280;20617;49.476;10.986;2022-09-12T03:47:27;98385.47;;;13.66;100.00
12879;BME280;20617;49.476;10.986;2022-09-12T03:49:32;98392.63;;;13.62;100.00
12879;BME280;20617;49.476;10.986;2022-09-12T03:51:39;98390.84;;;13.63;100.00
12879;BME280;20617;49.476;10.986;2022-09-12T03:53:44;98402.81;;;13.51;100.00
12879;BME280;20617;49.476;10.986;2022-09-12T03:55:49;98400.97;;;13.35;100.00
12879;BME280;20617;49.476;10.986;2022-09-12T03:57:54;98400.38;;;13.30;100.00
12879;BME280;20617;49.476;10.986;2022-09-12T03:59:59;98388.41;;;13.25;100.00
12879;BME280;20617;49.476;10.986;2022-09-12T04:02:13;98399.09;;;13.20;100.00
12879;BME280;20617;49.476;10.986;2022-09-12T04:04:18;98398.88;;;13.25;100.00
12879;BME280;20617;49.476;10.986;2022-09-12T04:06:22;98394.34;;;13.28;100.00
12879;BME280;20617;49.476;10.986;2022-09-12T04:08:30;98395.28;;;13.27;100.00
12879;BME280;20617;49.476;10.986;2022-09-12T04:10:34;98394.44;;;13.27;100.00
12879;BME280;20617;49.476;10.986;2022-09-12T04:12:39;98397.06;;;13.27;100.00
12879;BME280;20617;49.476;10.986;2022-09-12T04:14:44;98386.59;;;13.27;100.00
12879;BME280;20617;49.476;10.986;2022-09-12T04:16:49;98379.72;;;13.24;100.00
12879;BME280;20617;49.476;10.986;2022-09-12T04:18:54;98384.66;;;13.13;100.00
12879;BME280;20617;49.476;10.986;2022-09-12T04:21:02;98387.31;;;13.11;100.00
12879;BME280;20617;49.476;10.986;2022-09-12T04:23:07;98395.94;;;13.13;100.00
12879;BME280;20617;49.476;10.986;2022-09-12T04:25:15;98395.09;;;13.13;100.00
12879;BME280;20617;49.476;10.986;2022-09-12T04:27:19;98390.66;;;13.15;100.00
12879;BME280;20617;49.476;10.986;2022-09-12T04:29:24;98392.25;;;13.18;100.00
12879;BME280;20617;49.476;10.986;2022-09-12T04:31:30;98403.56;;;13.18;100.00
12879;BME280;20617;49.476;10.986;2022-09-12T04:33:35;98394.84;;;13.18;100.00
12879;BME280;20617;49.476;10.986;2022-09-12T04:35:40;98394.94;;;13.16;100.00
12879;BME280;20617;49.476;10.986;2022-09-12T04:37:46;98394.78;;;13.19;100.00
12879;BME280;20617;49.476;10.986;2022-09-12T04:39:51;98396.41;;;13.22;100.00
12879;BME280;20617;49.476;10.986;2022-09-12T04:42:01;98390.06;;;13.27;100.00
12879;BME280;20617;49.476;10.986;2022-09-12T04:44:09;98398.53;;;13.32;100.00
12879;BME280;20617;49.476;10.986;2022-09-12T04:46:15;98386.13;;;13.36;100.00
12879;BME280;20617;49.476;10.986;2022-09-12T04:48:21;98396.44;;;13.39;100.00
12879;BME280;20617;49.476;10.986;2022-09-12T04:50:25;98396.94;;;13.46;100.00
12879;BME280;20617;49.476;10.986;2022-09-12T04:52:30;98390.66;;;13.50;100.00
12879;BME280;20617;49.476;10.986;2022-09-12T04:54:36;98392.19;;;13.54;100.00
12879;BME280;20617;49.476;10.986;2022-09-12T04:56:42;98392.84;;;13.57;100.00
12879;BME280;20617;49.476;10.986;2022-09-12T04:58:51;98395.16;;;13.64;100.00
12879;BME280;20617;49.476;10.986;2022-09-12T05:01:02;98398.38;;;13.69;100.00
12879;BME280;20617;49.476;10.986;2022-09-12T05:03:07;98408.78;;;13.70;100.00
12879;BME280;20617;49.476;10.986;2022-09-12T05:05:12;98406.06;;;13.72;100.00
12879;BME280;20617;49.476;10.986;2022-09-12T05:07:18;98406.06;;;13.72;100.00
12879;BME280;20617;49.476;10.986;2022-09-12T05:09:23;98403.78;;;13.66;100.00
12879;BME280;20617;49.476;10.986;2022-09-12T05:11:29;98404.09;;;13.59;100.00
12879;BME280;20617;49.476;10.986;2022-09-12T05:13:57;98401.00;;;13.69;100.00
12879;BME280;20617;49.476;10.986;2022-09-12T05:16:03;98413.75;;;13.75;100.00
12879;BME280;20617;49.476;10.986;2022-09-12T05:18:09;98407.19;;;13.84;100.00
12879;BME280;20617;49.476;10.986;2022-09-12T05:20:14;98400.78;;;13.89;100.00
12879;BME280;20617;49.476;10.986;2022-09-12T05:22:19;98404.00;;;13.94;100.00
12879;BME280;20617;49.476;10.986;2022-09-12T05:24:25;98409.91;;;13.98;100.00
12879;BME280;20617;49.476;10.986;2022-09-12T05:26:30;98408.69;;;14.05;100.00
12879;BME280;20617;49.476;10.986;2022-09-12T05:28:36;98409.34;;;14.09;100.00
12879;BME280;20617;49.476;10.986;2022-09-12T05:30:44;98412.47;;;14.15;100.00
12879;BME280;20617;49.476;10.986;2022-09-12T05:32:52;98409.53;;;14.21;100.00
12879;BME280;20617;49.476;10.986;2022-09-12T05:34:57;98409.19;;;14.27;100.00
12879;BME280;20617;49.476;10.986;2022-09-12T05:37:02;98404.72;;;14.30;100.00
12879;BME280;20617;49.476;10.986;2022-09-12T05:39:07;98409.13;;;14.29;100.00
12879;BME280;20617;49.476;10.986;2022-09-12T05:41:13;98418.47;;;14.33;100.00
12879;BME280;20617;49.476;10.986;2022-09-12T05:43:25;98413.84;;;14.38;100.00
12879;BME280;20617;49.476;10.986;2022-09-12T05:45:30;98410.97;;;14.43;100.00
12879;BME280;20617;49.476;10.986;2022-09-12T05:47:38;98409.75;;;14.48;100.00
12879;BME280;20617;49.476;10.986;2022-09-12T05:49:44;98418.34;;;14.52;100.00
12879;BME280;20617;49.476;10.986;2022-09-12T05:51:52;98421.47;;;14.59;100.00
12879;BME280;20617;49.476;10.986;2022-09-12T05:53:59;98418.78;;;14.60;100.00
12879;BME280;20617;49.476;10.986;2022-09-12T05:56:05;98422.06;;;14.64;100.00
12879;BME280;20617;49.476;10.986;2022-09-12T05:58:10;98418.59;;;14.63;100.00
12879;BME280;20617;49.476;10.986;2022-09-12T06:00:16;98416.06;;;14.62;100.00
12879;BME280;20617;49.476;10.986;2022-09-12T06:02:22;98421.97;;;14.65;100.00
12879;BME280;20617;49.476;10.986;2022-09-12T06:04:30;98415.47;;;14.73;100.00
12879;BME280;20617;49.476;10.986;2022-09-12T06:06:36;98422.13;;;14.78;100.00
12879;BME280;20617;49.476;10.986;2022-09-12T06:08:44;98421.28;;;14.78;100.00
12879;BME280;20617;49.476;10.986;2022-09-12T06:10:49;98427.19;;;14.81;100.00
12879;BME280;20617;49.476;10.986;2022-09-12T06:12:54;98423.47;;;14.85;100.00
12879;BME280;20617;49.476;10.986;2022-09-12T06:14:58;98421.44;;;14.90;100.00
12879;BME280;20617;49.476;10.986;2022-09-12T06:17:03;98429.00;;;14.95;100.00
12879;BME280;20617;49.476;10.986;2022-09-12T06:19:13;98424.28;;;15.02;100.00
12879;BME280;20617;49.476;10.986;2022-09-12T06:21:22;98429.59;;;15.00;100.00
12879;BME280;20617;49.476;10.986;2022-09-12T06:23:27;98417.75;;;15.09;100.00
12879;BME280;20617;49.476;10.986;2022-09-12T06:25:32;98427.69;;;15.18;100.00
12879;BME280;20617;49.476;10.986;2022-09-12T06:27:36;98424.06;;;15.21;100.00
12879;BME280;20617;49.476;10.986;2022-09-12T06:29:41;98421.19;;;15.25;100.00
12879;BME280;20617;49.476;10.986;2022-09-12T06:31:46;98411.53;;;15.26;100.00
12879;BME280;20617;49.476;10.986;2022-09-12T06:33:53;98413.88;;;15.30;100.00
12879;BME280;20617;49.476;10.986;2022-09-12T06:36:02;98414.63;;;15.32;100.00
12879;BME280;20617;49.476;10.986;2022-09-12T06:38:15;98427.06;;;15.29;100.00
12879;BME280;20617;49.476;10.986;2022-09-12T06:40:20;98416.59;;;15.29;100.00
12879;BME280;20617;49.476;10.986;2022-09-12T06:42:25;98414.81;;;15.29;100.00
12879;BME280;20617;49.476;10.986;2022-09-12T06:44:31;98421.19;;;15.25;100.00
12879;BME280;20617;49.476;10.986;2022-09-12T06:46:35;98411.53;;;15.26;100.00
12879;BME280;20617;49.476;10.986;2022-09-12T06:48:40;98419.88;;;15.32;100.00
12879;BME280;20617;49.476;10.986;2022-09-12T06:50:54;98410.06;;;15.36;100.00
12879;BME280;20617;49.476;10.986;2022-09-12T06:52:59;98415.56;;;15.31;100.00
12879;BME280;20617;49.476;10.986;2022-09-12T06:55:07;98411.81;;;15.35;100.00
12879;BME280;20617;49.476;10.986;2022-09-12T06:57:14;98417.63;;;15.40;100.00
12879;BME280;20617;49.476;10.986;2022-09-12T06:59:18;98414.00;;;15.43;100.00
12879;BME280;20617;49.476;10.986;2022-09-12T07:01:24;98420.41;;;15.53;100.00
12879;BME280;20617;49.476;10.986;2022-09-12T07:03:31;98418.06;;;15.63;100.00
12879;BME280;20617;49.476;10.986;2022-09-12T07:05:36;98414.50;;;15.64;100.00
12879;BME280;20617;49.476;10.986;2022-09-12T07:07:41;98420.41;;;15.68;100.00
12879;BME280;20617;49.476;10.986;2022-09-12T07:09:45;98419.50;;;15.69;100.00
12879;BME280;20617;49.476;10.986;2022-09-12T07:11:53;98411.97;;;15.62;100.00
12879;BME280;20617;49.476;10.986;2022-09-12T07:13:59;98419.84;;;15.62;100.00
12879;BME280;20617;49.476;10.986;2022-09-12T07:16:05;98415.00;;;15.71;100.00
12879;BME280;20617;49.476;10.986;2022-09-12T07:18:10;98414.47;;;15.80;100.00
12879;BME280;20617;49.476;10.986;2022-09-12T07:20:15;98410.63;;;15.86;100.00
12879;BME280;20617;49.476;10.986;2022-09-12T07:22:20;98409.94;;;15.96;100.00
12879;BME280;20617;49.476;10.986;2022-09-12T07:24:25;98412.84;;;16.06;100.00
12879;BME280;20617;49.476;10.986;2022-09-12T07:26:30;98411.53;;;16.13;100.00
12879;BME280;20617;49.476;10.986;2022-09-12T07:28:38;98417.53;;;16.15;100.00
12879;BME280;20617;49.476;10.986;2022-09-12T07:30:43;98407.66;;;16.19;100.00
12879;BME280;20617;49.476;10.986;2022-09-12T07:32:51;98409.28;;;16.21;100.00
12879;BME280;20617;49.476;10.986;2022-09-12T07:34:56;98408.97;;;16.26;100.00
12879;BME280;20617;49.476;10.986;2022-09-12T07:37:00;98407.53;;;16.35;100.00
12879;BME280;20617;49.476;10.986;2022-09-12T07:39:05;98407.25;;;16.39;100.00
12879;BME280;20617;49.476;10.986;2022-09-12T07:41:10;98413.75;;;16.34;100.00
12879;BME280;20617;49.476;10.986;2022-09-12T07:43:15;98410.28;;;16.33;100.00
12879;BME280;20617;49.476;10.986;2022-09-12T07:45:22;98410.84;;;16.38;100.00
12879;BME280;20617;49.476;10.986;2022-09-12T07:47:27;98407.81;;;16.44;100.00
12879;BME280;20617;49.476;10.986;2022-09-12T07:49:32;98412.13;;;16.45;100.00
12879;BME280;20617;49.476;10.986;2022-09-12T07:51:37;98416.69;;;16.56;100.00
12879;BME280;20617;49.476;10.986;2022-09-12T07:53:42;98410.94;;;16.64;100.00
12879;BME280;20617;49.476;10.986;2022-09-12T07:55:52;98423.34;;;16.62;100.00
12879;BME280;20617;49.476;10.986;2022-09-12T07:57:57;98422.81;;;16.42;100.00
12879;BME280;20617;49.476;10.986;2022-09-12T08:00:03;98422.38;;;16.36;100.00
12879;BME280;20617;49.476;10.986;2022-09-12T08:02:15;98418.91;;;16.35;100.00
12879;BME280;20617;49.476;10.986;2022-09-12T08:04:20;98428.56;;;16.35;100.00
12879;BME280;20617;49.476;10.986;2022-09-12T08:06:27;98424.38;;;16.32;100.00
12879;BME280;20617;49.476;10.986;2022-09-12T08:08:33;98430.09;;;16.24;100.00
12879;BME280;20617;49.476;10.986;2022-09-12T08:10:38;98429.53;;;16.19;100.00
12879;BME280;20617;49.476;10.986;2022-09-12T08:12:43;98432.97;;;16.20;100.00
12879;BME280;20617;49.476;10.986;2022-09-12T08:14:49;98429.81;;;16.29;100.00
12879;BME280;20617;49.476;10.986;2022-09-12T08:16:54;98436.06;;;16.41;100.00
12879;BME280;20617;49.476;10.986;2022-09-12T08:19:02;98432.50;;;16.42;100.00
12879;BME280;20617;49.476;10.986;2022-09-12T08:21:13;98434.53;;;16.51;100.00
12879;BME280;20617;49.476;10.986;2022-09-12T08:23:18;98432.88;;;16.50;100.00
12879;BME280;20617;49.476;10.986;2022-09-12T08:25:24;98436.41;;;16.49;100.00
12879;BME280;20617;49.476;10.986;2022-09-12T08:27:29;98432.22;;;16.46;100.00
12879;BME280;20617;49.476;10.986;2022-09-12T08:29:33;98432.78;;;16.37;100.00
12879;BME280;20617;49.476;10.986;2022-09-12T08:31:38;98436.16;;;16.39;100.00
12879;BME280;20617;49.476;10.986;2022-09-12T08:33:44;98432.09;;;16.48;100.00
12879;BME280;20617;49.476;10.986;2022-09-12T08:36:01;98429.47;;;16.48;100.00
12879;BME280;20617;49.476;10.986;2022-09-12T08:38:06;98432.56;;;16.55;100.00
12879;BME280;20617;49.476;10.986;2022-09-12T08:40:14;98426.06;;;16.60;100.00
12879;BME280;20617;49.476;10.986;2022-09-12T08:42:27;98426.03;;;16.74;100.00
12879;BME280;20617;49.476;10.986;2022-09-12T08:44:49;98420.00;;;16.87;100.00
12879;BME280;20617;49.476;10.986;2022-09-12T08:47:12;98420.94;;;16.86;100.00
12879;BME280;20617;49.476;10.986;2022-09-12T08:49:24;98418.75;;;16.92;100.00
12879;BME280;20617;49.476;10.986;2022-09-12T08:51:35;98423.38;;;16.89;100.00
12879;BME280;20617;49.476;10.986;2022-09-12T08:53:41;98415.91;;;16.95;100.00
12879;BME280;20617;49.476;10.986;2022-09-12T08:55:52;98417.97;;;17.05;100.00
12879;BME280;20617;49.476;10.986;2022-09-12T08:58:03;98414.72;;;17.14;100.00
12879;BME280;20617;49.476;10.986;2022-09-12T09:00:12;98411.06;;;17.16;100.00
12879;BME280;20617;49.476;10.986;2022-09-12T09:02:40;98417.28;;;17.28;100.00
12879;BME280;20617;49.476;10.986;2022-09-12T09:04:51;98416.69;;;17.10;100.00
12879;BME280;20617;49.476;10.986;2022-09-12T09:07:17;98422.00;;;17.36;100.00
12879;BME280;20617;49.476;10.986;2022-09-12T09:09:36;98420.69;;;17.43;100.00
12879;BME280;20617;49.476;10.986;2022-09-12T09:11:53;98420.03;;;17.52;100.00
12879;BME280;20617;49.476;10.986;2022-09-12T09:14:10;98410.06;;;17.57;100.00
12879;BME280;20617;49.476;10.986;2022-09-12T09:16:34;98407.84;;;17.64;100.00
12879;BME280;20617;49.476;10.986;2022-09-12T09:18:42;98410.66;;;17.74;100.00
12879;BME280;20617;49.476;10.986;2022-09-12T09:20:50;98405.44;;;17.86;100.00
12879;BME280;20617;49.476;10.986;2022-09-12T09:23:02;98396.06;;;17.95;100.00
12879;BME280;20617;49.476;10.986;2022-09-12T09:25:16;98402.47;;;18.04;100.00
12879;BME280;20617;49.476;10.986;2022-09-12T09:27:28;98404.78;;;18.08;100.00
12879;BME280;20617;49.476;10.986;2022-09-12T09:29:44;98397.41;;;18.14;100.00
12879;BME280;20617;49.476;10.986;2022-09-12T09:31:52;98404.41;;;18.26;100.00
12879;BME280;20617;49.476;10.986;2022-09-12T09:33:58;98399.00;;;18.40;100.00
12879;BME280;20617;49.476;10.986;2022-09-12T09:36:11;98396.88;;;18.45;100.00
12879;BME280;20617;49.476;10.986;2022-09-12T09:38:36;98392.47;;;18.46;100.00
12879;BME280;20617;49.476;10.986;2022-09-12T09:40:51;98385.69;;;18.54;100.00
12879;BME280;20617;49.476;10.986;2022-09-12T09:43:02;98376.47;;;18.60;99.12
12879;BME280;20617;49.476;10.986;2022-09-12T09:45:14;98383.47;;;18.72;99.36
12879;BME280;20617;49.476;10.986;2022-09-12T09:47:20;98383.56;;;18.84;98.56
12879;BME280;20617;49.476;10.986;2022-09-12T09:49:26;98382.78;;;18.94;96.87
12879;BME280;20617;49.476;10.986;2022-09-12T09:51:34;98370.06;;;18.88;95.33
12879;BME280;20617;49.476;10.986;2022-09-12T09:53:44;98368.16;;;19.02;94.85
12879;BME280;20617;49.476;10.986;2022-09-12T09:55:52;98369.00;;;19.02;94.76
12879;BME280;20617;49.476;10.986;2022-09-12T09:57:59;98362.19;;;18.99;94.11
12879;BME280;20617;49.476;10.986;2022-09-12T10:00:20;98350.31;;;19.05;93.01
12879;BME280;20617;49.476;10.986;2022-09-12T10:02:25;98359.34;;;19.25;93.07
12879;BME280;20617;49.476;10.986;2022-09-12T10:04:32;98356.41;;;19.41;89.84
12879;BME280;20617;49.476;10.986;2022-09-12T10:06:43;98355.34;;;19.55;87.80
12879;BME280;20617;49.476;10.986;2022-09-12T10:09:09;98349.50;;;19.74;87.76
12879;BME280;20617;49.476;10.986;2022-09-12T10:11:21;98344.22;;;19.85;86.34
12879;BME280;20617;49.476;10.986;2022-09-12T10:13:37;98337.97;;;19.86;84.72
12879;BME280;20617;49.476;10.986;2022-09-12T10:15:55;98339.41;;;19.90;84.00
12879;BME280;20617;49.476;10.986;2022-09-12T10:18:01;98345.78;;;19.99;84.63
12879;BME280;20617;49.476;10.986;2022-09-12T10:20:11;98341.91;;;20.03;83.79
12879;BME280;20617;49.476;10.986;2022-09-12T10:22:32;98343.81;;;20.12;80.52
12879;BME280;20617;49.476;10.986;2022-09-12T10:24:40;98337.69;;;20.23;80.17
12879;BME280;20617;49.476;10.986;2022-09-12T10:26:51;98336.84;;;20.33;79.03
12879;BME280;20617;49.476;10.986;2022-09-12T10:29:03;98329.44;;;20.48;77.05
12879;BME280;20617;49.476;10.986;2022-09-12T10:31:13;98333.38;;;20.65;77.09
12879;BME280;20617;49.476;10.986;2022-09-12T10:33:19;98333.72;;;20.72;75.09
12879;BME280;20617;49.476;10.986;2022-09-12T10:35:28;98328.13;;;20.86;74.01
12879;BME280;20617;49.476;10.986;2022-09-12T10:37:36;98318.97;;;20.90;72.81
12879;BME280;20617;49.476;10.986;2022-09-12T10:39:49;98323.34;;;20.80;73.86
12879;BME280;20617;49.476;10.986;2022-09-12T10:41:56;98329.53;;;20.69;73.90
12879;BME280;20617;49.476;10.986;2022-09-12T10:44:05;98315.28;;;20.82;73.30
12879;BME280;20617;49.476;10.986;2022-09-12T10:46:26;98317.28;;;20.89;71.43
12879;BME280;20617;49.476;10.986;2022-09-12T10:48:32;98320.06;;;20.88;71.57
12879;BME280;20617;49.476;10.986;2022-09-12T10:50:38;98326.69;;;20.82;70.38
12879;BME280;20617;49.476;10.986;2022-09-12T10:52:44;98321.03;;;20.87;70.99
12879;BME280;20617;49.476;10.986;2022-09-12T10:54:54;98322.53;;;21.00;69.79
12879;BME280;20617;49.476;10.986;2022-09-12T10:57:21;98307.59;;;20.99;69.33
12879;BME280;20617;49.476;10.986;2022-09-12T10:59:36;98308.63;;;21.08;69.18
12879;BME280;20617;49.476;10.986;2022-09-12T11:01:47;98307.53;;;21.11;69.06
12879;BME280;20617;49.476;10.986;2022-09-12T11:06:38;98310.00;;;21.23;66.68
12879;BME280;20617;49.476;10.986;2022-09-12T11:08:52;98309.22;;;21.12;67.41
12879;BME280;20617;49.476;10.986;2022-09-12T11:11:09;98301.88;;;21.15;67.22
12879;BME280;20617;49.476;10.986;2022-09-12T11:13:25;98307.41;;;21.33;67.05